sensor_id;sensor_type;location;lat;lon;timestamp;pressure;altitude;pressure_sealevel;temperature;humidity
70559;BME280;58108;48.094;11.838;2022-07-25T00:02:03;95354.59;;;16.64;84.13
70559;BME280;58108;48.094;11.838;2022-07-25T00:04:28;95350.09;;;16.56;84.83
70559;BME280;58108;48.094;11.838;2022-07-25T00:06:54;95346.13;;;16.44;85.17
70559;BME280;58108;48.094;11.838;2022-07-25T00:09:19;95348.28;;;16.48;84.94
70559;BME280;58108;48.094;11.838;2022-07-25T00:11:45;95343.53;;;16.68;84.07
70559;BME280;58108;48.094;11.838;2022-07-25T00:14:10;95345.84;;;16.72;83.76
70559;BME280;58108;48.094;11.838;2022-07-25T00:16:35;95340.25;;;16.75;83.01
70559;BME280;58108;48.094;11.838;2022-07-25T00:19:01;95337.91;;;16.80;82.96
70559;BME280;58108;48.094;11.838;2022-07-25T00:21:26;95343.56;;;16.77;82.98
70559;BME280;58108;48.094;11.838;2022-07-25T00:23:51;95338.91;;;16.71;83.35
70559;BME280;58108;48.094;11.838;2022-07-25T00:26:17;95339.75;;;16.71;83.75
70559;BME280;58108;48.094;11.838;2022-07-25T00:28:42;95338.75;;;16.80;83.30
70559;BME280;58108;48.094;11.838;2022-07-25T00:31:08;95333.47;;;16.80;82.90
70559;BME280;58108;48.094;11.838;2022-07-25T00:33:33;95328.69;;;16.84;82.60
70559;BME280;58108;48.094;11.838;2022-07-25T00:35:58;95330.81;;;16.72;83.26
70559;BME280;58108;48.094;11.838;2022-07-25T00:38:24;95333.28;;;16.65;83.65
70559;BME280;58108;48.094;11.838;2022-07-25T00:40:49;95331.97;;;16.78;83.24
70559;BME280;58108;48.094;11.838;2022-07-25T00:43:14;95330.31;;;16.77;83.47
70559;BME280;58108;48.094;11.838;2022-07-25T00:45:40;95337.72;;;16.57;84.31
70559;BME280;58108;48.094;11.838;2022-07-25T00:48:05;95322.88;;;16.72;83.66
70559;BME280;58108;48.094;11.838;2022-07-25T00:50:32;95325.03;;;16.68;84.16
70559;BME280;58108;48.094;11.838;2022-07-25T00:52:58;95331.44;;;16.49;85.00
70559;BME280;58108;48.094;11.838;2022-07-25T00:55:24;95322.19;;;16.53;84.68
70559;BME280;58108;48.094;11.838;2022-07-25T00:57:49;95318.72;;;16.61;84.15
70559;BME280;58108;48.094;11.838;2022-07-25T01:00:17;95318.91;;;16.68;83.98
70559;BME280;58108;48.094;11.838;2022-07-25T01:02:43;95320.72;;;16.59;84.08
70559;BME280;58108;48.094;11.838;2022-07-25T01:05:09;95322.75;;;16.82;83.04
70559;BME280;58108;48.094;11.838;2022-07-25T01:07:37;95320.28;;;17.05;81.71
70559;BME280;58108;48.094;11.838;2022-07-25T01:10:03;95324.41;;;17.16;81.09
70559;BME280;58108;48.094;11.838;2022-07-25T01:12:29;95318.31;;;17.16;81.10
70559;BME280;58108;48.094;11.838;2022-07-25T01:14:56;95314.00;;;17.06;80.95
70559;BME280;58108;48.094;11.838;2022-07-25T01:17:21;95316.47;;;17.16;81.00
70559;BME280;58108;48.094;11.838;2022-07-25T01:19:47;95315.00;;;17.05;81.22
70559;BME280;58108;48.094;11.838;2022-07-25T01:22:12;95314.31;;;16.87;82.34
70559;BME280;58108;48.094;11.838;2022-07-25T01:24:38;95304.19;;;16.65;83.29
70559;BME280;58108;48.094;11.838;2022-07-25T01:27:04;95309.81;;;16.79;83.26
70559;BME280;58108;48.094;11.838;2022-07-25T01:29:29;95307.75;;;17.16;80.38
70559;BME280;58108;48.094;11.838;2022-07-25T01:31:55;95304.72;;;16.94;81.69
70559;BME280;58108;48.094;11.838;2022-07-25T01:34:20;95297.09;;;16.91;81.58
70559;BME280;58108;48.094;11.838;2022-07-25T01:36:45;95292.47;;;16.68;83.13
70559;BME280;58108;48.094;11.838;2022-07-25T01:39:11;95304.56;;;16.95;81.83
70559;BME280;58108;48.094;11.838;2022-07-25T01:41:36;95299.75;;;16.91;82.08
70559;BME280;58108;48.094;11.838;2022-07-25T01:44:02;95287.88;;;16.87;81.70
70559;BME280;58108;48.094;11.838;2022-07-25T01:46:27;95283.38;;;16.71;82.53
70559;BME280;58108;48.094;11.838;2022-07-25T01:48:52;95282.38;;;16.63;82.78
70559;BME280;58108;48.094;11.838;2022-07-25T01:51:18;95289.81;;;16.60;83.68
70559;BME280;58108;48.094;11.838;2022-07-25T01:53:43;95285.69;;;16.65;83.29
70559;BME280;58108;48.094;11.838;2022-07-25T01:56:08;95280.88;;;16.61;83.29
70559;BME280;58108;48.094;11.838;2022-07-25T01:58:34;95277.78;;;16.74;82.64
70559;BME280;58108;48.094;11.838;2022-07-25T02:00:59;95280.38;;;16.65;82.95
70559;BME280;58108;48.094;11.838;2022-07-25T02:03:24;95276.09;;;16.48;83.38
70559;BME280;58108;48.094;11.838;2022-07-25T02:05:58;95273.78;;;16.61;82.94
70559;BME280;58108;48.094;11.838;2022-07-25T02:08:23;95274.59;;;16.45;83.60
70559;BME280;58108;48.094;11.838;2022-07-25T02:10:49;95271.94;;;16.45;83.89
70559;BME280;58108;48.094;11.838;2022-07-25T02:13:14;95272.28;;;16.42;84.16
70559;BME280;58108;48.094;11.838;2022-07-25T02:15:39;95270.25;;;16.19;85.26
70559;BME280;58108;48.094;11.838;2022-07-25T02:18:05;95275.16;;;16.06;85.80
70559;BME280;58108;48.094;11.838;2022-07-25T02:20:30;95274.03;;;16.17;85.55
70559;BME280;58108;48.094;11.838;2022-07-25T02:22:56;95268.88;;;16.07;85.74
70559;BME280;58108;48.094;11.838;2022-07-25T02:25:21;95265.38;;;15.98;86.54
70559;BME280;58108;48.094;11.838;2022-07-25T02:27:46;95264.22;;;16.01;86.18
70559;BME280;58108;48.094;11.838;2022-07-25T02:30:12;95263.25;;;16.02;85.90
70559;BME280;58108;48.094;11.838;2022-07-25T02:32:38;95261.44;;;16.02;86.41
70559;BME280;58108;48.094;11.838;2022-07-25T02:35:05;95267.84;;;15.91;86.40
70559;BME280;58108;48.094;11.838;2022-07-25T02:37:31;95256.72;;;15.79;86.60
70559;BME280;58108;48.094;11.838;2022-07-25T02:39:56;95257.38;;;15.81;86.67
70559;BME280;58108;48.094;11.838;2022-07-25T02:42:21;95254.56;;;15.83;85.83
70559;BME280;58108;48.094;11.838;2022-07-25T02:44:46;95253.66;;;15.92;85.97
70559;BME280;58108;48.094;11.838;2022-07-25T02:47:12;95257.56;;;15.80;86.30
70559;BME280;58108;48.094;11.838;2022-07-25T02:49:37;95256.06;;;15.77;86.61
70559;BME280;58108;48.094;11.838;2022-07-25T02:52:03;95256.22;;;15.84;85.80
70559;BME280;58108;48.094;11.838;2022-07-25T02:54:28;95264.59;;;16.06;85.05
70559;BME280;58108;48.094;11.838;2022-07-25T02:56:53;95259.94;;;15.99;85.48
70559;BME280;58108;48.094;11.838;2022-07-25T02:59:18;95258.88;;;15.84;86.26
70559;BME280;58108;48.094;11.838;2022-07-25T03:01:44;95258.81;;;15.67;87.55
70559;BME280;58108;48.094;11.838;2022-07-25T03:04:09;95259.75;;;15.58;88.06
70559;BME280;58108;48.094;11.838;2022-07-25T03:06:34;95270.94;;;15.52;88.76
70559;BME280;58108;48.094;11.838;2022-07-25T03:09:00;95270.56;;;15.47;89.08
70559;BME280;58108;48.094;11.838;2022-07-25T03:11:25;95262.03;;;15.53;88.89
70559;BME280;58108;48.094;11.838;2022-07-25T03:13:51;95264.69;;;15.53;88.47
70559;BME280;58108;48.094;11.838;2022-07-25T03:16:16;95273.34;;;15.45;89.23
70559;BME280;58108;48.094;11.838;2022-07-25T03:18:41;95270.06;;;15.43;89.51
70559;BME280;58108;48.094;11.838;2022-07-25T03:21:07;95263.16;;;15.50;88.79
70559;BME280;58108;48.094;11.838;2022-07-25T03:23:32;95274.81;;;15.39;88.79
70559;BME280;58108;48.094;11.838;2022-07-25T03:25:57;95270.94;;;15.52;88.47
70559;BME280;58108;48.094;11.838;2022-07-25T03:28:23;95272.47;;;15.63;87.27
70559;BME280;58108;48.094;11.838;2022-07-25T03:30:49;95267.94;;;15.47;87.51
70559;BME280;58108;48.094;11.838;2022-07-25T03:33:15;95265.06;;;15.31;87.87
70559;BME280;58108;48.094;11.838;2022-07-25T03:35:40;95262.47;;;15.40;86.75
70559;BME280;58108;48.094;11.838;2022-07-25T03:38:05;95259.56;;;15.25;87.31
70559;BME280;58108;48.094;11.838;2022-07-25T03:40:32;95260.19;;;15.18;87.80
70559;BME280;58108;48.094;11.838;2022-07-25T03:42:57;95261.09;;;15.09;87.91
70559;BME280;58108;48.094;11.838;2022-07-25T03:45:23;95263.22;;;15.06;88.51
70559;BME280;58108;48.094;11.838;2022-07-25T03:47:48;95256.63;;;15.01;89.86
70559;BME280;58108;48.094;11.838;2022-07-25T03:50:13;95256.22;;;15.14;89.06
70559;BME280;58108;48.094;11.838;2022-07-25T03:52:39;95253.56;;;15.14;89.77
70559;BME280;58108;48.094;11.838;2022-07-25T03:55:06;95260.44;;;15.34;89.25
70559;BME280;58108;48.094;11.838;2022-07-25T03:57:32;95260.75;;;15.30;89.29
70559;BME280;58108;48.094;11.838;2022-07-25T03:59:57;95252.31;;;15.53;88.00
70559;BME280;58108;48.094;11.838;2022-07-25T04:02:23;95255.53;;;15.39;87.78
70559;BME280;58108;48.094;11.838;2022-07-25T04:04:48;95258.09;;;15.30;88.55
70559;BME280;58108;48.094;11.838;2022-07-25T04:07:13;95258.28;;;15.29;89.00
70559;BME280;58108;48.094;11.838;2022-07-25T04:09:39;95255.63;;;15.29;89.16
70559;BME280;58108;48.094;11.838;2022-07-25T04:12:04;95258.38;;;15.45;88.23
70559;BME280;58108;48.094;11.838;2022-07-25T04:14:30;95256.88;;;15.43;87.93
70559;BME280;58108;48.094;11.838;2022-07-25T04:16:55;95255.09;;;15.52;87.67
70559;BME280;58108;48.094;11.838;2022-07-25T04:19:20;95256.75;;;15.53;87.78
70559;BME280;58108;48.094;11.838;2022-07-25T04:21:46;95249.97;;;15.50;87.97
70559;BME280;58108;48.094;11.838;2022-07-25T04:24:11;95249.50;;;15.55;87.66
70559;BME280;58108;48.094;11.838;2022-07-25T04:26:36;95248.25;;;15.67;87.44
70559;BME280;58108;48.094;11.838;2022-07-25T04:29:01;95243.09;;;15.57;88.15
70559;BME280;58108;48.094;11.838;2022-07-25T04:31:28;95245.56;;;15.59;88.11
70559;BME280;58108;48.094;11.838;2022-07-25T04:33:53;95240.09;;;15.52;88.50
70559;BME280;58108;48.094;11.838;2022-07-25T04:36:19;95242.53;;;15.45;89.62
70559;BME280;58108;48.094;11.838;2022-07-25T04:38:45;95236.22;;;15.73;88.65
70559;BME280;58108;48.094;11.838;2022-07-25T04:41:10;95234.25;;;16.10;86.99
70559;BME280;58108;48.094;11.838;2022-07-25T04:43:36;95238.06;;;16.32;86.64
70559;BME280;58108;48.094;11.838;2022-07-25T04:46:01;95235.44;;;16.65;84.95
70559;BME280;58108;48.094;11.838;2022-07-25T04:48:27;95226.34;;;16.43;86.85
70559;BME280;58108;48.094;11.838;2022-07-25T04:50:52;95233.00;;;16.56;86.64
70559;BME280;58108;48.094;11.838;2022-07-25T04:53:17;95236.28;;;16.74;86.98
70559;BME280;58108;48.094;11.838;2022-07-25T04:55:43;95233.31;;;16.86;86.66
70559;BME280;58108;48.094;11.838;2022-07-25T04:58:08;95235.63;;;17.22;85.69
70559;BME280;58108;48.094;11.838;2022-07-25T05:00:33;95230.66;;;17.75;83.71
70559;BME280;58108;48.094;11.838;2022-07-25T05:02:59;95235.59;;;18.18;82.14
70559;BME280;58108;48.094;11.838;2022-07-25T05:05:24;95236.47;;;18.42;80.46
70559;BME280;58108;48.094;11.838;2022-07-25T05:07:55;95234.84;;;18.41;80.46
70559;BME280;58108;48.094;11.838;2022-07-25T05:10:21;95230.94;;;18.29;81.00
70559;BME280;58108;48.094;11.838;2022-07-25T05:12:46;95234.59;;;18.28;81.24
70559;BME280;58108;48.094;11.838;2022-07-25T05:15:12;95226.44;;;18.53;80.36
70559;BME280;58108;48.094;11.838;2022-07-25T05:17:37;95238.78;;;18.69;79.85
70559;BME280;58108;48.094;11.838;2022-07-25T05:20:03;95227.56;;;18.82;79.26
70559;BME280;58108;48.094;11.838;2022-07-25T05:22:28;95232.69;;;18.83;79.64
70559;BME280;58108;48.094;11.838;2022-07-25T05:24:54;95232.56;;;19.00;79.85
70559;BME280;58108;48.094;11.838;2022-07-25T05:27:19;95222.09;;;19.22;78.61
70559;BME280;58108;48.094;11.838;2022-07-25T05:29:44;95215.06;;;19.29;77.97
70559;BME280;58108;48.094;11.838;2022-07-25T05:32:10;95222.56;;;19.40;77.64
70559;BME280;58108;48.094;11.838;2022-07-25T05:34:35;95223.75;;;19.38;77.89
70559;BME280;58108;48.094;11.838;2022-07-25T05:37:00;95216.53;;;19.47;77.56
70559;BME280;58108;48.094;11.838;2022-07-25T05:39:26;95217.34;;;19.62;77.12
70559;BME280;58108;48.094;11.838;2022-07-25T05:41:51;95221.84;;;19.62;77.55
70559;BME280;58108;48.094;11.838;2022-07-25T05:44:16;95228.59;;;19.64;77.79
70559;BME280;58108;48.094;11.838;2022-07-25T05:46:42;95223.34;;;19.86;76.90
70559;BME280;58108;48.094;11.838;2022-07-25T05:49:07;95222.44;;;20.09;75.44
70559;BME280;58108;48.094;11.838;2022-07-25T05:51:32;95225.25;;;20.22;74.50
70559;BME280;58108;48.094;11.838;2022-07-25T05:53:58;95216.25;;;20.24;74.03
70559;BME280;58108;48.094;11.838;2022-07-25T05:56:23;95222.34;;;20.39;74.19
70559;BME280;58108;48.094;11.838;2022-07-25T05:58:51;95224.34;;;20.52;73.22
70559;BME280;58108;48.094;11.838;2022-07-25T06:01:17;95222.63;;;20.66;71.99
70559;BME280;58108;48.094;11.838;2022-07-25T06:03:42;95221.47;;;20.75;71.97
70559;BME280;58108;48.094;11.838;2022-07-25T06:06:08;95219.69;;;20.83;71.95
70559;BME280;58108;48.094;11.838;2022-07-25T06:08:35;95213.94;;;21.01;70.34
70559;BME280;58108;48.094;11.838;2022-07-25T06:11:00;95220.66;;;21.25;67.62
70559;BME280;58108;48.094;11.838;2022-07-25T06:13:28;95215.38;;;21.32;66.53
70559;BME280;58108;48.094;11.838;2022-07-25T06:15:53;95219.31;;;21.36;67.80
70559;BME280;58108;48.094;11.838;2022-07-25T06:18:19;95211.75;;;21.40;66.96
70559;BME280;58108;48.094;11.838;2022-07-25T06:20:44;95222.06;;;21.50;67.59
70559;BME280;58108;48.094;11.838;2022-07-25T06:23:09;95209.44;;;21.65;67.49
70559;BME280;58108;48.094;11.838;2022-07-25T06:25:35;95219.88;;;21.67;68.18
70559;BME280;58108;48.094;11.838;2022-07-25T06:28:00;95218.75;;;21.83;68.24
70559;BME280;58108;48.094;11.838;2022-07-25T06:30:26;95215.66;;;21.79;69.13
70559;BME280;58108;48.094;11.838;2022-07-25T06:32:52;95221.72;;;22.02;67.61
70559;BME280;58108;48.094;11.838;2022-07-25T06:35:17;95217.88;;;22.11;66.79
70559;BME280;58108;48.094;11.838;2022-07-25T06:37:45;95210.47;;;22.13;67.11
70559;BME280;58108;48.094;11.838;2022-07-25T06:40:10;95211.94;;;22.22;66.79
70559;BME280;58108;48.094;11.838;2022-07-25T06:42:43;95210.34;;;22.42;66.90
70559;BME280;58108;48.094;11.838;2022-07-25T06:45:10;95210.63;;;22.53;67.12
70559;BME280;58108;48.094;11.838;2022-07-25T06:47:43;95201.59;;;22.61;65.36
70559;BME280;58108;48.094;11.838;2022-07-25T06:50:17;95210.22;;;22.70;64.95
70559;BME280;58108;48.094;11.838;2022-07-25T06:52:43;95207.34;;;22.72;64.57
70559;BME280;58108;48.094;11.838;2022-07-25T06:55:11;95201.59;;;22.81;64.13
70559;BME280;58108;48.094;11.838;2022-07-25T06:57:37;95195.25;;;22.89;65.30
70559;BME280;58108;48.094;11.838;2022-07-25T07:00:05;95196.88;;;23.04;64.32
70559;BME280;58108;48.094;11.838;2022-07-25T07:02:33;95191.09;;;23.27;62.95
70559;BME280;58108;48.094;11.838;2022-07-25T07:04:59;95188.66;;;23.32;63.70
70559;BME280;58108;48.094;11.838;2022-07-25T07:07:24;95189.66;;;23.38;62.42
70559;BME280;58108;48.094;11.838;2022-07-25T07:09:49;95191.50;;;23.51;63.73
70559;BME280;58108;48.094;11.838;2022-07-25T07:14:40;95191.41;;;23.78;61.34
70559;BME280;58108;48.094;11.838;2022-07-25T07:17:07;95185.88;;;23.80;61.78
70559;BME280;58108;48.094;11.838;2022-07-25T07:19:32;95181.72;;;23.90;61.50
70559;BME280;58108;48.094;11.838;2022-07-25T07:21:58;95185.78;;;24.00;58.93
70559;BME280;58108;48.094;11.838;2022-07-25T07:24:23;95181.38;;;24.19;59.45
70559;BME280;58108;48.094;11.838;2022-07-25T07:26:48;95181.97;;;24.28;58.75
70559;BME280;58108;48.094;11.838;2022-07-25T07:29:14;95187.91;;;24.37;60.77
70559;BME280;58108;48.094;11.838;2022-07-25T07:31:39;95183.00;;;24.59;58.42
70559;BME280;58108;48.094;11.838;2022-07-25T07:34:05;95175.94;;;24.71;56.58
70559;BME280;58108;48.094;11.838;2022-07-25T07:36:30;95175.44;;;24.81;55.27
70559;BME280;58108;48.094;11.838;2022-07-25T07:38:55;95169.84;;;24.90;56.05
70559;BME280;58108;48.094;11.838;2022-07-25T07:41:21;95165.78;;;24.80;55.50
70559;BME280;58108;48.094;11.838;2022-07-25T07:43:46;95165.00;;;24.98;55.23
70559;BME280;58108;48.094;11.838;2022-07-25T07:46:11;95161.78;;;25.15;55.63
70559;BME280;58108;48.094;11.838;2022-07-25T07:48:37;95161.25;;;25.25;54.99
70559;BME280;58108;48.094;11.838;2022-07-25T07:51:03;95157.66;;;25.38;55.37
70559;BME280;58108;48.094;11.838;2022-07-25T07:53:28;95161.66;;;25.47;54.99
70559;BME280;58108;48.094;11.838;2022-07-25T07:56:13;95159.75;;;25.55;54.96
70559;BME280;58108;48.094;11.838;2022-07-25T07:58:39;95163.13;;;25.43;55.26
70559;BME280;58108;48.094;11.838;2022-07-25T08:01:04;95158.88;;;25.61;53.63
70559;BME280;58108;48.094;11.838;2022-07-25T08:03:30;95166.09;;;25.79;53.95
70559;BME280;58108;48.094;11.838;2022-07-25T08:05:56;95158.69;;;25.93;53.91
70559;BME280;58108;48.094;11.838;2022-07-25T08:08:22;95165.53;;;25.89;52.40
70559;BME280;58108;48.094;11.838;2022-07-25T08:10:48;95162.06;;;26.19;51.81
70559;BME280;58108;48.094;11.838;2022-07-25T08:15:47;95161.72;;;26.46;50.25
70559;BME280;58108;48.094;11.838;2022-07-25T08:18:12;95160.34;;;26.55;50.84
70559;BME280;58108;48.094;11.838;2022-07-25T08:20:38;95156.97;;;26.72;51.02
70559;BME280;58108;48.094;11.838;2022-07-25T08:23:04;95155.25;;;26.78;48.15
70559;BME280;58108;48.094;11.838;2022-07-25T08:25:30;95147.00;;;27.03;49.15
70559;BME280;58108;48.094;11.838;2022-07-25T08:27:55;95158.69;;;27.33;48.74
70559;BME280;58108;48.094;11.838;2022-07-25T08:30:21;95146.53;;;27.30;47.04
70559;BME280;58108;48.094;11.838;2022-07-25T08:32:59;95145.34;;;27.38;45.94
70559;BME280;58108;48.094;11.838;2022-07-25T08:35:26;95143.88;;;27.83;46.59
70559;BME280;58108;48.094;11.838;2022-07-25T08:37:52;95140.88;;;27.67;44.81
70559;BME280;58108;48.094;11.838;2022-07-25T08:40:19;95141.13;;;27.66;46.44
70559;BME280;58108;48.094;11.838;2022-07-25T08:42:45;95148.81;;;27.86;42.51
70559;BME280;58108;48.094;11.838;2022-07-25T08:45:12;95134.84;;;27.89;43.16
70559;BME280;58108;48.094;11.838;2022-07-25T08:47:39;95144.84;;;28.06;43.12
70559;BME280;58108;48.094;11.838;2022-07-25T08:50:08;95129.78;;;27.64;44.83
70559;BME280;58108;48.094;11.838;2022-07-25T08:52:34;95128.88;;;27.99;43.93
70559;BME280;58108;48.094;11.838;2022-07-25T08:55:03;95142.44;;;28.04;42.76
70559;BME280;58108;48.094;11.838;2022-07-25T08:57:29;95135.81;;;28.24;42.37
70559;BME280;58108;48.094;11.838;2022-07-25T08:59:58;95131.91;;;28.32;43.95
70559;BME280;58108;48.094;11.838;2022-07-25T09:02:27;95125.50;;;28.50;42.96
70559;BME280;58108;48.094;11.838;2022-07-25T09:04:54;95127.94;;;28.69;42.89
70559;BME280;58108;48.094;11.838;2022-07-25T09:07:39;95138.47;;;28.53;42.46
70559;BME280;58108;48.094;11.838;2022-07-25T09:10:16;95123.59;;;28.50;42.52
70559;BME280;58108;48.094;11.838;2022-07-25T09:13:05;95127.47;;;28.55;43.00
70559;BME280;58108;48.094;11.838;2022-07-25T09:15:58;95125.50;;;28.50;41.91
70559;BME280;58108;48.094;11.838;2022-07-25T09:18:25;95113.44;;;29.04;42.76
70559;BME280;58108;48.094;11.838;2022-07-25T09:26:10;95123.13;;;29.22;39.71
70559;BME280;58108;48.094;11.838;2022-07-25T09:28:44;95114.19;;;29.22;41.26
70559;BME280;58108;48.094;11.838;2022-07-25T09:31:10;95112.31;;;29.39;39.62
70559;BME280;58108;48.094;11.838;2022-07-25T09:33:47;95104.28;;;29.89;38.77
70559;BME280;58108;48.094;11.838;2022-07-25T09:36:16;95113.06;;;29.79;40.05
70559;BME280;58108;48.094;11.838;2022-07-25T09:38:52;95112.66;;;29.65;38.94
70559;BME280;58108;48.094;11.838;2022-07-25T09:41:18;95100.53;;;29.68;38.55
70559;BME280;58108;48.094;11.838;2022-07-25T09:43:43;95111.84;;;29.65;37.07
70559;BME280;58108;48.094;11.838;2022-07-25T09:46:10;95110.78;;;29.66;37.15
70559;BME280;58108;48.094;11.838;2022-07-25T09:48:38;95106.88;;;29.79;36.51
70559;BME280;58108;48.094;11.838;2022-07-25T09:51:04;95106.72;;;29.91;35.30
70559;BME280;58108;48.094;11.838;2022-07-25T09:53:30;95101.63;;;30.17;35.44
70559;BME280;58108;48.094;11.838;2022-07-25T09:55:56;95103.00;;;30.19;35.74
70559;BME280;58108;48.094;11.838;2022-07-25T09:58:24;95091.38;;;30.46;36.01
70559;BME280;58108;48.094;11.838;2022-07-25T10:00:54;95108.97;;;30.49;34.55
70559;BME280;58108;48.094;11.838;2022-07-25T10:04:06;95102.66;;;30.10;35.69
70559;BME280;58108;48.094;11.838;2022-07-25T10:06:54;95091.91;;;30.48;36.75
70559;BME280;58108;48.094;11.838;2022-07-25T10:09:21;95077.72;;;31.01;35.05
70559;BME280;58108;48.094;11.838;2022-07-25T10:12:10;95094.63;;;30.81;33.27
70559;BME280;58108;48.094;11.838;2022-07-25T10:14:37;95095.81;;;30.95;33.66
70559;BME280;58108;48.094;11.838;2022-07-25T10:17:03;95085.97;;;30.79;32.88
70559;BME280;58108;48.094;11.838;2022-07-25T10:19:55;95086.22;;;30.77;33.04
70559;BME280;58108;48.094;11.838;2022-07-25T10:22:20;95082.50;;;30.83;30.72
70559;BME280;58108;48.094;11.838;2022-07-25T10:24:46;95076.97;;;30.68;32.77
70559;BME280;58108;48.094;11.838;2022-07-25T10:27:19;95080.88;;;30.88;31.89
70559;BME280;58108;48.094;11.838;2022-07-25T10:29:49;95085.13;;;30.46;32.34
70559;BME280;58108;48.094;11.838;2022-07-25T10:32:16;95069.31;;;30.92;31.67
70559;BME280;58108;48.094;11.838;2022-07-25T10:34:51;95075.38;;;30.72;31.80
70559;BME280;58108;48.094;11.838;2022-07-25T10:37:17;95078.16;;;30.82;30.41
70559;BME280;58108;48.094;11.838;2022-07-25T10:39:44;95062.53;;;30.95;31.16
70559;BME280;58108;48.094;11.838;2022-07-25T10:42:14;95067.78;;;31.07;30.06
70559;BME280;58108;48.094;11.838;2022-07-25T10:44:44;95069.56;;;30.91;30.32
70559;BME280;58108;48.094;11.838;2022-07-25T10:47:12;95060.72;;;31.06;29.86
70559;BME280;58108;48.094;11.838;2022-07-25T10:49:41;95064.66;;;30.82;29.27
70559;BME280;58108;48.094;11.838;2022-07-25T10:52:07;95049.25;;;30.88;30.50
70559;BME280;58108;48.094;11.838;2022-07-25T10:54:38;95057.66;;;31.30;30.13
70559;BME280;58108;48.094;11.838;2022-07-25T10:57:05;95053.97;;;31.08;31.96
70559;BME280;58108;48.094;11.838;2022-07-25T10:59:35;95040.91;;;31.38;30.51
70559;BME280;58108;48.094;11.838;2022-07-25T11:02:03;95042.91;;;31.63;31.13
70559;BME280;58108;48.094;11.838;2022-07-25T11:04:29;95040.28;;;31.89;30.67
70559;BME280;58108;48.094;11.838;2022-07-25T11:06:55;95049.25;;;32.21;29.12
70559;BME280;58108;48.094;11.838;2022-07-25T11:09:23;95036.53;;;32.27;28.54
70559;BME280;58108;48.094;11.838;2022-07-25T11:11:50;95039.25;;;32.16;29.67
70559;BME280;58108;48.094;11.838;2022-07-25T11:14:18;95045.66;;;31.84;30.02
70559;BME280;58108;48.094;11.838;2022-07-25T11:16:46;95048.41;;;32.00;29.75
70559;BME280;58108;48.094;11.838;2022-07-25T11:19:20;95039.44;;;31.84;30.10
70559;BME280;58108;48.094;11.838;2022-07-25T11:21:48;95019.69;;;31.83;31.35
70559;BME280;58108;48.094;11.838;2022-07-25T11:24:14;95032.72;;;32.17;30.28
70559;BME280;58108;48.094;11.838;2022-07-25T11:26:44;95031.34;;;32.10;29.69
70559;BME280;58108;48.094;11.838;2022-07-25T11:29:22;95033.66;;;31.49;29.92
70559;BME280;58108;48.094;11.838;2022-07-25T11:31:56;95032.34;;;31.67;28.59
70559;BME280;58108;48.094;11.838;2022-07-25T11:34:26;95034.25;;;31.77;28.61
70559;BME280;58108;48.094;11.838;2022-07-25T11:36:54;95023.53;;;32.08;29.43
70559;BME280;58108;48.094;11.838;2022-07-25T11:39:26;95024.84;;;31.95;26.69
70559;BME280;58108;48.094;11.838;2022-07-25T11:42:18;95018.59;;;32.00;27.05
70559;BME280;58108;48.094;11.838;2022-07-25T11:44:49;95032.75;;;32.33;24.89
70559;BME280;58108;48.094;11.838;2022-07-25T11:47:30;95007.00;;;32.36;26.44
70559;BME280;58108;48.094;11.838;2022-07-25T11:49:58;95020.28;;;32.58;25.21
70559;BME280;58108;48.094;11.838;2022-07-25T11:54:59;95012.13;;;32.73;24.99
70559;BME280;58108;48.094;11.838;2022-07-25T11:57:26;95004.53;;;32.60;24.40
70559;BME280;58108;48.094;11.838;2022-07-25T11:59:53;95004.53;;;32.60;26.11
70559;BME280;58108;48.094;11.838;2022-07-25T12:02:30;95010.25;;;32.79;25.08
70559;BME280;58108;48.094;11.838;2022-07-25T12:05:00;95009.16;;;32.70;24.81
70559;BME280;58108;48.094;11.838;2022-07-25T12:07:45;94989.97;;;32.45;24.62
70559;BME280;58108;48.094;11.838;2022-07-25T12:10:31;95000.97;;;32.85;24.90
70559;BME280;58108;48.094;11.838;2022-07-25T12:12:57;94994.19;;;33.09;24.57
70559;BME280;58108;48.094;11.838;2022-07-25T12:15:25;95011.41;;;33.44;22.77
70559;BME280;58108;48.094;11.838;2022-07-25T12:17:52;94995.56;;;33.67;22.31
70559;BME280;58108;48.094;11.838;2022-07-25T12:20:32;94987.22;;;33.98;21.83
70559;BME280;58108;48.094;11.838;2022-07-25T12:23:02;94982.81;;;34.13;21.58
70559;BME280;58108;48.094;11.838;2022-07-25T12:25:31;94988.22;;;35.07;20.11
70559;BME280;58108;48.094;11.838;2022-07-25T12:27:58;94980.84;;;34.18;21.24
70559;BME280;58108;48.094;11.838;2022-07-25T12:30:25;94978.13;;;34.83;21.58
70559;BME280;58108;48.094;11.838;2022-07-25T12:32:51;94975.59;;;35.60;20.01
70559;BME280;58108;48.094;11.838;2022-07-25T12:35:16;94973.72;;;35.55;22.70
70559;BME280;58108;48.094;11.838;2022-07-25T12:37:42;94981.75;;;35.22;20.13
70559;BME280;58108;48.094;11.838;2022-07-25T12:40:10;94978.97;;;35.02;20.60
70559;BME280;58108;48.094;11.838;2022-07-25T12:42:35;94978.75;;;35.23;20.24
70559;BME280;58108;48.094;11.838;2022-07-25T12:45:01;94969.66;;;35.33;19.87
70559;BME280;58108;48.094;11.838;2022-07-25T12:47:27;94972.97;;;36.12;20.35
70559;BME280;58108;48.094;11.838;2022-07-25T12:49:52;94980.78;;;35.56;20.24
70559;BME280;58108;48.094;11.838;2022-07-25T12:52:18;94968.00;;;35.95;20.32
70559;BME280;58108;48.094;11.838;2022-07-25T12:54:43;94969.56;;;36.20;19.28
70559;BME280;58108;48.094;11.838;2022-07-25T12:57:10;94948.81;;;36.52;19.11
70559;BME280;58108;48.094;11.838;2022-07-25T12:59:36;94959.63;;;36.10;19.89
70559;BME280;58108;48.094;11.838;2022-07-25T13:02:02;94955.75;;;35.78;20.82
70559;BME280;58108;48.094;11.838;2022-07-25T13:04:28;94954.13;;;36.91;20.72